Flight Track Log - Related Links

Times and Time Zones

All times are in EDT time to prevent confusion due to time zone crossing. See the ASQ5678 flight status page for this flight to view local times or setup timezone preferences in your user account.

Time Position Orientation Groundspeed Altitude Reporting Facility
EDT Latitude Longitude Course Direction KTS MPH feet Rate Location/Type
Sat 03:30:47 PM 41.4194 -81.8292 118° Southeast 182 209 1,700  Level Cleveland Center
Sat 03:31:36 PM 41.4242 -81.7794 83° East 196 226 3,400 1,811 Climbing Cleveland Center
Sat 03:32:33 PM 41.3958 -81.7097 118° Southeast 214 246 4,900 1,692 Climbing Cleveland Center
Sat 03:33:00 PM 41.2398 -81.4995 118° Southeast  Level FlightAware Approximate
Sat 03:33:33 PM 41.3528 -81.6342 127° Southeast 282 325 6,700  Level Cleveland Center
Sat 03:34:00 PM 41.1888 -81.3804 127° Southeast  Level FlightAware Approximate
Sat 03:34:33 PM 41.3117 -81.5672 129° Southeast 275 316 9,200  Level Cleveland Center
Sat 03:35:00 PM 41.1279 -81.2699 118° Southeast  Level FlightAware Approximate
Sat 03:35:33 PM 41.2706 -81.4864 124° Southeast 264 304 12,000  Level Cleveland Center
Sat 03:36:33 PM 41.2294 -81.4114 126° Southeast 253 291 14,000 1,700 Climbing Cleveland Center
Sat 03:37:33 PM 41.1861 -81.3528 134° Southeast 248 285 15,400 1,400 Climbing Cleveland Center
Sat 03:38:33 PM 41.1050 -81.3106 159° South 262 302 16,800 1,550 Climbing Cleveland Center
Sat 03:39:33 PM 41.0261 -81.2739 161° South 292 336 18,500 1,550 Climbing Cleveland Center
Sat 03:40:33 PM 40.9408 -81.2372 162° South 317 365 19,900 1,400 Climbing Cleveland Center
Sat 03:41:33 PM 40.8536 -81.1925 159° South 331 381 21,300 1,400 Climbing Cleveland Center
Sat 03:42:33 PM 40.7683 -81.1286 150° Southeast 337 388 22,700 1,400 Climbing Cleveland Center
Sat 03:43:33 PM 40.6811 -81.0622 150° Southeast 351 404 24,100 1,300 Climbing Cleveland Center
Sat 03:44:33 PM 40.5936 -81.0150 158° South 351 404 25,300 1,300 Climbing Cleveland Center
Sat 03:45:33 PM 40.4958 -80.9817 165° South 346 398 26,700 850 Climbing Cleveland Center
Sat 03:46:33 PM 40.4064 -80.9294 156° South 351 404 27,000 150 Climbing Cleveland Center
Sat 03:47:33 PM 40.3378 -80.8364 134° Southeast 362 417 27,000  Level Cleveland Center
Sat 03:48:33 PM 40.2506 -80.7789 153° Southeast 368 423 27,000  Level Cleveland Center
Sat 03:49:33 PM 40.1567 -80.7514 167° South 356 410 27,000  Level Cleveland Center
Sat 03:50:33 PM 40.0628 -80.7186 165° South 350 403 27,000  Level Cleveland Center
Sat 03:51:33 PM 39.9711 -80.6914 167° South 345 397 27,000  Level Cleveland Center
Sat 03:52:33 PM 39.8817 -80.6617 166° South 340 391 27,000  Level Cleveland Center
Sat 03:53:33 PM 39.7919 -80.6289 164° South 335 386 27,000  Level Cleveland Center
Sat 03:54:33 PM 39.7067 -80.5642 150° Southeast 335 386 27,000  Level Cleveland Center
Sat 03:55:33 PM 39.7169 -80.4347 84° East 301 346 27,000  Level Cleveland Center
Sat 03:56:33 PM 39.8147 -80.3694 27° Northeast 247 284 27,000  Level Cleveland Center
Sat 03:57:33 PM 39.9147 -80.3125 24° Northeast 317 365 27,000  Level Cleveland Center
Sat 03:58:33 PM 39.9747 -80.2067 53° Northeast 342 394 27,000  Level Cleveland Center
Sat 03:59:33 PM 39.9181 -80.1039 126° Southeast 260 299 27,000  Level Cleveland Center
Sat 04:00:33 PM 39.8428 -80.0100 136° Southeast 295 339 27,000  Level Cleveland Center
Sat 04:01:33 PM 39.7692 -79.9053 132° Southeast 349 402 27,000  Level Cleveland Center
Sat 04:02:33 PM 39.6933 -79.8008 133° Southeast 378 435 27,000  Level Cleveland Center
Sat 04:03:33 PM 39.6175 -79.6939 133° Southeast 397 457 27,000  Level Cleveland Center
Sat 04:04:59 PM 39.5094 -79.5403 132° Southeast 401 461 27,000 -123 Level Washington Center
Sat 04:05:59 PM 39.4728 -79.3850 107° East 423 487 26,700 -744 Descending Washington Center
Sat 04:07:00 PM 39.4386 -79.2086 104° East 433 498 25,500 -1,513 Descending Washington Center
Sat 04:07:58 PM 39.4117 -79.0569 103° East 438 504 23,700 -2,118 Descending Washington Center
Sat 04:08:59 PM 39.3847 -78.9106 103° East 433 498 21,300 -2,132 Descending Washington Center
Sat 04:09:59 PM 39.3614 -78.7697 102° East 421 484 19,400 -2,231 Descending Washington Center
Sat 04:11:00 PM 39.3336 -78.6264 104° East 410 472 16,800 -2,231 Descending Washington Center
Sat 04:12:00 PM 39.2972 -78.4961 110° East 398 458 14,900 -1,983 Descending Washington Center
Sat 04:12:58 PM 39.2542 -78.3819 116° Southeast 373 429 12,900 -1,765 Descending Washington Center
Sat 04:13:59 PM 39.2314 -78.2872 107° East 358 412 11,400 -1,230 Descending Washington Center
Sat 04:15:00 PM 39.1839 -78.1703 118° Southeast 324 373 10,400 -1,160 Descending Washington Center
Sat 04:15:58 PM 39.1356 -78.0831 126° Southeast 307 353 9,100 -966 Descending Washington Center
Sat 04:16:58 PM 39.0894 -77.9958 124° Southeast 302 348 8,500 -893 Descending Washington Center
Sat 04:17:59 PM 39.0453 -77.9114 124° Southeast 297 342 7,300 -1,150 Descending Washington Center
Sat 04:18:58 PM 39.0092 -77.8408 123° Southeast 282 325 6,200 -655 Descending Washington Center
Sat 04:19:58 PM 38.9669 -77.7542 122° Southeast 266 306 6,000 -100 Descending Washington Center
Sat 04:20:58 PM 38.9558 -77.6683 99° East 253 291 6,000 -52 Level Washington Center
Sat 04:21:53 PM 39.0000 -77.5833 56° Northeast 278 320 5,900 -600 Descending Potomac TRACON
Sat 04:22:48 PM 39.0667 -77.5667 11° North 269 310 4,900 -1,148 Descending Potomac TRACON
Sat 04:23:48 PM 39.1333 -77.5667 360° North 255 293 3,700 -900 Descending Potomac TRACON
Sat 04:24:48 PM 39.1333 -77.5000 90° East 220 253 3,100 -600 Descending Potomac TRACON

Login

Don't have an account? Register now (free) for customized features, flight alerts, and more!